sensor_id;sensor_type;location;lat;lon;timestamp;temperature;humidity
43458;DHT22;29046;54.184;18.680;2023-02-28T00:01:21;-3.70;99.90
43458;DHT22;29046;54.184;18.680;2023-02-28T00:03:48;-3.80;99.90
43458;DHT22;29046;54.184;18.680;2023-02-28T00:06:16;-3.90;99.90
43458;DHT22;29046;54.184;18.680;2023-02-28T00:08:43;-4.00;99.90
43458;DHT22;29046;54.184;18.680;2023-02-28T00:11:12;-4.00;99.90
43458;DHT22;29046;54.184;18.680;2023-02-28T00:13:43;-3.90;99.90
43458;DHT22;29046;54.184;18.680;2023-02-28T00:16:15;-4.00;99.90
43458;DHT22;29046;54.184;18.680;2023-02-28T00:18:43;-3.90;99.90
43458;DHT22;29046;54.184;18.680;2023-02-28T00:21:10;-3.80;99.90
43458;DHT22;29046;54.184;18.680;2023-02-28T00:23:37;-3.60;99.90
43458;DHT22;29046;54.184;18.680;2023-02-28T00:26:05;-3.50;99.90
43458;DHT22;29046;54.184;18.680;2023-02-28T00:28:32;-3.70;99.90
43458;DHT22;29046;54.184;18.680;2023-02-28T00:30:59;-4.00;99.90
43458;DHT22;29046;54.184;18.680;2023-02-28T00:33:27;-4.50;99.90
43458;DHT22;29046;54.184;18.680;2023-02-28T00:36:06;-4.90;99.90
43458;DHT22;29046;54.184;18.680;2023-02-28T00:38:34;-5.10;99.90
43458;DHT22;29046;54.184;18.680;2023-02-28T00:41:01;-5.30;99.90
43458;DHT22;29046;54.184;18.680;2023-02-28T00:43:36;-5.40;99.90
43458;DHT22;29046;54.184;18.680;2023-02-28T00:46:04;-5.50;99.90
43458;DHT22;29046;54.184;18.680;2023-02-28T00:48:32;-5.50;99.90
43458;DHT22;29046;54.184;18.680;2023-02-28T00:50:59;-5.40;99.90
43458;DHT22;29046;54.184;18.680;2023-02-28T00:53:26;-4.80;99.90
43458;DHT22;29046;54.184;18.680;2023-02-28T00:55:54;-4.50;99.90
43458;DHT22;29046;54.184;18.680;2023-02-28T00:58:21;-4.30;99.90
43458;DHT22;29046;54.184;18.680;2023-02-28T01:00:48;-4.20;99.90
43458;DHT22;29046;54.184;18.680;2023-02-28T01:03:17;-4.10;99.90
43458;DHT22;29046;54.184;18.680;2023-02-28T01:05:45;-3.90;99.90
43458;DHT22;29046;54.184;18.680;2023-02-28T01:08:13;-3.80;99.90
43458;DHT22;29046;54.184;18.680;2023-02-28T01:10:41;-3.70;99.90
43458;DHT22;29046;54.184;18.680;2023-02-28T01:13:08;-3.60;99.90
43458;DHT22;29046;54.184;18.680;2023-02-28T01:15:36;-3.50;99.90
43458;DHT22;29046;54.184;18.680;2023-02-28T01:18:03;-3.60;99.90
43458;DHT22;29046;54.184;18.680;2023-02-28T01:20:30;-3.70;99.90
43458;DHT22;29046;54.184;18.680;2023-02-28T01:22:57;-3.80;99.90
43458;DHT22;29046;54.184;18.680;2023-02-28T01:25:25;-4.00;99.90
43458;DHT22;29046;54.184;18.680;2023-02-28T01:27:52;-4.10;99.90
43458;DHT22;29046;54.184;18.680;2023-02-28T01:30:19;-4.10;99.90
43458;DHT22;29046;54.184;18.680;2023-02-28T01:32:46;-4.10;99.90
43458;DHT22;29046;54.184;18.680;2023-02-28T01:35:14;-4.20;99.90
43458;DHT22;29046;54.184;18.680;2023-02-28T01:37:41;-4.50;99.90
43458;DHT22;29046;54.184;18.680;2023-02-28T01:40:08;-4.70;99.90
43458;DHT22;29046;54.184;18.680;2023-02-28T01:42:35;-4.60;99.90
43458;DHT22;29046;54.184;18.680;2023-02-28T01:45:23;-4.30;99.90
43458;DHT22;29046;54.184;18.680;2023-02-28T01:47:55;-4.10;99.90
43458;DHT22;29046;54.184;18.680;2023-02-28T01:50:28;-3.90;99.90
43458;DHT22;29046;54.184;18.680;2023-02-28T01:52:59;-3.80;99.90
43458;DHT22;29046;54.184;18.680;2023-02-28T01:55:28;-3.70;99.90
43458;DHT22;29046;54.184;18.680;2023-02-28T01:57:58;-3.60;99.90
43458;DHT22;29046;54.184;18.680;2023-02-28T02:00:28;-3.50;99.90
43458;DHT22;29046;54.184;18.680;2023-02-28T02:03:03;-3.50;99.90
43458;DHT22;29046;54.184;18.680;2023-02-28T02:05:31;-3.50;99.90
43458;DHT22;29046;54.184;18.680;2023-02-28T02:08:03;-3.50;99.90
43458;DHT22;29046;54.184;18.680;2023-02-28T02:10:40;-3.50;99.90
43458;DHT22;29046;54.184;18.680;2023-02-28T02:15:54;-3.40;99.90
43458;DHT22;29046;54.184;18.680;2023-02-28T02:18:43;-3.40;99.90
43458;DHT22;29046;54.184;18.680;2023-02-28T02:32:19;-3.30;99.90
43458;DHT22;29046;54.184;18.680;2023-02-28T02:37:58;-3.40;99.90
43458;DHT22;29046;54.184;18.680;2023-02-28T02:41:15;-3.40;99.90
43458;DHT22;29046;54.184;18.680;2023-02-28T02:43:35;-3.40;99.90
43458;DHT22;29046;54.184;18.680;2023-02-28T02:46:08;-3.50;99.90
43458;DHT22;29046;54.184;18.680;2023-02-28T02:48:39;-3.50;99.90
43458;DHT22;29046;54.184;18.680;2023-02-28T02:51:13;-3.50;99.90
43458;DHT22;29046;54.184;18.680;2023-02-28T02:53:48;-3.40;99.90
43458;DHT22;29046;54.184;18.680;2023-02-28T02:56:20;-3.40;99.90
43458;DHT22;29046;54.184;18.680;2023-02-28T02:58:50;-3.40;99.90
43458;DHT22;29046;54.184;18.680;2023-02-28T03:01:21;-3.60;99.90
43458;DHT22;29046;54.184;18.680;2023-02-28T03:04:02;-3.90;99.90
43458;DHT22;29046;54.184;18.680;2023-02-28T03:06:29;-4.20;99.90
43458;DHT22;29046;54.184;18.680;2023-02-28T03:08:57;-4.50;99.90
43458;DHT22;29046;54.184;18.680;2023-02-28T03:11:24;-4.80;99.90
43458;DHT22;29046;54.184;18.680;2023-02-28T03:27:29;-5.50;99.90
43458;DHT22;29046;54.184;18.680;2023-02-28T03:30:01;-5.40;99.90
43458;DHT22;29046;54.184;18.680;2023-02-28T03:32:35;-5.40;99.90
43458;DHT22;29046;54.184;18.680;2023-02-28T03:35:19;-5.40;99.90
43458;DHT22;29046;54.184;18.680;2023-02-28T03:38:02;-5.40;99.90
43458;DHT22;29046;54.184;18.680;2023-02-28T03:40:33;-5.30;99.90
43458;DHT22;29046;54.184;18.680;2023-02-28T03:43:07;-5.50;99.90
43458;DHT22;29046;54.184;18.680;2023-02-28T03:45:37;-5.80;99.90
43458;DHT22;29046;54.184;18.680;2023-02-28T03:48:15;-6.00;99.90
43458;DHT22;29046;54.184;18.680;2023-02-28T03:50:49;-6.00;99.90
43458;DHT22;29046;54.184;18.680;2023-02-28T03:53:36;-6.10;99.90
43458;DHT22;29046;54.184;18.680;2023-02-28T03:58:46;-6.30;99.90
43458;DHT22;29046;54.184;18.680;2023-02-28T04:01:50;-6.30;99.90
43458;DHT22;29046;54.184;18.680;2023-02-28T04:04:11;-6.40;99.90
43458;DHT22;29046;54.184;18.680;2023-02-28T04:06:39;-6.60;99.90
43458;DHT22;29046;54.184;18.680;2023-02-28T04:09:08;-6.50;99.90
43458;DHT22;29046;54.184;18.680;2023-02-28T04:11:41;-6.40;99.90
43458;DHT22;29046;54.184;18.680;2023-02-28T04:14:09;-6.40;99.90
43458;DHT22;29046;54.184;18.680;2023-02-28T04:16:39;-6.30;99.90
43458;DHT22;29046;54.184;18.680;2023-02-28T04:19:08;-6.30;99.90
43458;DHT22;29046;54.184;18.680;2023-02-28T04:21:47;-6.30;99.90
43458;DHT22;29046;54.184;18.680;2023-02-28T04:24:23;-6.30;99.90
43458;DHT22;29046;54.184;18.680;2023-02-28T04:26:55;-6.20;99.90
43458;DHT22;29046;54.184;18.680;2023-02-28T04:29:28;-6.30;99.90
43458;DHT22;29046;54.184;18.680;2023-02-28T04:31:55;-6.40;99.90
43458;DHT22;29046;54.184;18.680;2023-02-28T04:34:29;-6.50;99.90
43458;DHT22;29046;54.184;18.680;2023-02-28T04:36:57;-6.60;99.90
43458;DHT22;29046;54.184;18.680;2023-02-28T04:39:39;-6.70;99.90
43458;DHT22;29046;54.184;18.680;2023-02-28T04:42:06;-6.80;99.90
43458;DHT22;29046;54.184;18.680;2023-02-28T04:44:33;-6.80;99.90
43458;DHT22;29046;54.184;18.680;2023-02-28T04:47:00;-6.70;99.90
43458;DHT22;29046;54.184;18.680;2023-02-28T04:49:27;-6.70;99.90
43458;DHT22;29046;54.184;18.680;2023-02-28T04:51:55;-6.70;99.90
43458;DHT22;29046;54.184;18.680;2023-02-28T04:54:22;-6.70;99.90
43458;DHT22;29046;54.184;18.680;2023-02-28T04:56:49;-6.50;99.90
43458;DHT22;29046;54.184;18.680;2023-02-28T04:59:17;-6.60;99.90
43458;DHT22;29046;54.184;18.680;2023-02-28T05:01:48;-6.60;99.90
43458;DHT22;29046;54.184;18.680;2023-02-28T05:04:16;-6.70;99.90
43458;DHT22;29046;54.184;18.680;2023-02-28T05:06:44;-6.80;99.90
43458;DHT22;29046;54.184;18.680;2023-02-28T05:09:11;-6.90;99.90
43458;DHT22;29046;54.184;18.680;2023-02-28T05:11:39;-6.90;99.90
43458;DHT22;29046;54.184;18.680;2023-02-28T05:14:11;-6.80;99.90
43458;DHT22;29046;54.184;18.680;2023-02-28T05:16:38;-6.80;99.90
43458;DHT22;29046;54.184;18.680;2023-02-28T05:19:05;-6.80;99.90
43458;DHT22;29046;54.184;18.680;2023-02-28T05:21:35;-6.70;99.90
43458;DHT22;29046;54.184;18.680;2023-02-28T05:24:09;-6.60;99.90
43458;DHT22;29046;54.184;18.680;2023-02-28T05:26:39;-6.50;99.90
43458;DHT22;29046;54.184;18.680;2023-02-28T05:29:06;-6.40;99.90
43458;DHT22;29046;54.184;18.680;2023-02-28T05:31:35;-6.40;99.90
43458;DHT22;29046;54.184;18.680;2023-02-28T05:34:03;-6.30;99.90
43458;DHT22;29046;54.184;18.680;2023-02-28T05:36:33;-6.30;99.90
43458;DHT22;29046;54.184;18.680;2023-02-28T05:39:00;-6.30;99.90
43458;DHT22;29046;54.184;18.680;2023-02-28T05:41:27;-6.10;99.90
43458;DHT22;29046;54.184;18.680;2023-02-28T05:43:55;-6.10;99.90
43458;DHT22;29046;54.184;18.680;2023-02-28T05:46:24;-5.70;99.90
43458;DHT22;29046;54.184;18.680;2023-02-28T05:48:51;-5.50;99.90
43458;DHT22;29046;54.184;18.680;2023-02-28T05:51:18;-5.40;99.90
43458;DHT22;29046;54.184;18.680;2023-02-28T05:53:45;-5.40;99.90
43458;DHT22;29046;54.184;18.680;2023-02-28T05:56:12;-5.30;99.90
43458;DHT22;29046;54.184;18.680;2023-02-28T05:58:39;-5.30;99.90
43458;DHT22;29046;54.184;18.680;2023-02-28T06:01:34;-5.20;99.90
43458;DHT22;29046;54.184;18.680;2023-02-28T06:04:04;-5.20;99.90
43458;DHT22;29046;54.184;18.680;2023-02-28T06:06:31;-5.30;99.90
43458;DHT22;29046;54.184;18.680;2023-02-28T06:09:05;-5.20;99.90
43458;DHT22;29046;54.184;18.680;2023-02-28T06:11:33;-5.00;99.90
43458;DHT22;29046;54.184;18.680;2023-02-28T06:14:01;-4.90;99.90
43458;DHT22;29046;54.184;18.680;2023-02-28T06:16:30;-5.00;99.90
43458;DHT22;29046;54.184;18.680;2023-02-28T06:18:58;-5.00;99.90
43458;DHT22;29046;54.184;18.680;2023-02-28T06:21:26;-4.80;99.90
43458;DHT22;29046;54.184;18.680;2023-02-28T06:23:56;-4.30;99.90
43458;DHT22;29046;54.184;18.680;2023-02-28T06:26:24;-3.90;99.90
43458;DHT22;29046;54.184;18.680;2023-02-28T06:28:51;-3.10;99.90
43458;DHT22;29046;54.184;18.680;2023-02-28T06:31:19;-2.40;99.90
43458;DHT22;29046;54.184;18.680;2023-02-28T06:33:46;-1.90;99.90
43458;DHT22;29046;54.184;18.680;2023-02-28T06:36:15;-1.60;99.90
43458;DHT22;29046;54.184;18.680;2023-02-28T06:38:43;-1.50;99.90
43458;DHT22;29046;54.184;18.680;2023-02-28T06:41:11;-1.50;99.90
43458;DHT22;29046;54.184;18.680;2023-02-28T06:43:41;-1.30;99.90
43458;DHT22;29046;54.184;18.680;2023-02-28T06:46:12;-1.10;99.90
43458;DHT22;29046;54.184;18.680;2023-02-28T06:48:42;-0.90;99.90
43458;DHT22;29046;54.184;18.680;2023-02-28T06:51:19;-0.70;99.90
43458;DHT22;29046;54.184;18.680;2023-02-28T06:53:49;-0.60;99.90
43458;DHT22;29046;54.184;18.680;2023-02-28T06:56:18;-0.70;99.90
43458;DHT22;29046;54.184;18.680;2023-02-28T06:58:50;-0.70;99.90
43458;DHT22;29046;54.184;18.680;2023-02-28T07:01:19;-0.90;99.90
43458;DHT22;29046;54.184;18.680;2023-02-28T07:03:47;-1.10;99.90
43458;DHT22;29046;54.184;18.680;2023-02-28T07:06:22;-1.10;99.90
43458;DHT22;29046;54.184;18.680;2023-02-28T07:08:51;-1.00;99.90
43458;DHT22;29046;54.184;18.680;2023-02-28T07:11:21;-0.80;99.90
43458;DHT22;29046;54.184;18.680;2023-02-28T07:13:56;-0.60;99.90
43458;DHT22;29046;54.184;18.680;2023-02-28T07:16:25;-0.40;99.90
43458;DHT22;29046;54.184;18.680;2023-02-28T07:18:53;-0.30;99.90
43458;DHT22;29046;54.184;18.680;2023-02-28T07:21:22;-0.30;99.90
43458;DHT22;29046;54.184;18.680;2023-02-28T07:23:49;-0.20;99.90
43458;DHT22;29046;54.184;18.680;2023-02-28T07:26:19;-0.10;99.90
43458;DHT22;29046;54.184;18.680;2023-02-28T07:28:48;0.20;99.90
43458;DHT22;29046;54.184;18.680;2023-02-28T07:31:16;0.40;99.90
43458;DHT22;29046;54.184;18.680;2023-02-28T07:33:44;0.60;99.90
43458;DHT22;29046;54.184;18.680;2023-02-28T07:36:14;0.70;99.90
43458;DHT22;29046;54.184;18.680;2023-02-28T07:38:43;0.90;99.90
43458;DHT22;29046;54.184;18.680;2023-02-28T07:41:15;1.30;99.90
43458;DHT22;29046;54.184;18.680;2023-02-28T07:43:43;2.00;99.90
43458;DHT22;29046;54.184;18.680;2023-02-28T07:46:14;2.70;99.90
43458;DHT22;29046;54.184;18.680;2023-02-28T07:48:42;3.10;99.90
43458;DHT22;29046;54.184;18.680;2023-02-28T07:51:10;3.20;99.90
43458;DHT22;29046;54.184;18.680;2023-02-28T07:53:37;3.50;99.90
43458;DHT22;29046;54.184;18.680;2023-02-28T07:56:05;3.80;99.90
43458;DHT22;29046;54.184;18.680;2023-02-28T07:58:32;3.90;99.90
43458;DHT22;29046;54.184;18.680;2023-02-28T08:01:07;4.40;99.90
43458;DHT22;29046;54.184;18.680;2023-02-28T08:03:36;4.70;98.30
43458;DHT22;29046;54.184;18.680;2023-02-28T08:06:05;5.50;97.80
43458;DHT22;29046;54.184;18.680;2023-02-28T08:08:32;5.70;94.40
43458;DHT22;29046;54.184;18.680;2023-02-28T08:11:01;5.60;95.90
43458;DHT22;29046;54.184;18.680;2023-02-28T08:13:29;5.70;95.40
43458;DHT22;29046;54.184;18.680;2023-02-28T08:15:57;5.60;95.60
43458;DHT22;29046;54.184;18.680;2023-02-28T08:18:24;5.60;97.20
43458;DHT22;29046;54.184;18.680;2023-02-28T08:20:51;6.00;94.60
43458;DHT22;29046;54.184;18.680;2023-02-28T08:23:18;6.40;93.30
43458;DHT22;29046;54.184;18.680;2023-02-28T08:25:53;6.50;93.90
43458;DHT22;29046;54.184;18.680;2023-02-28T08:28:22;6.60;93.10
43458;DHT22;29046;54.184;18.680;2023-02-28T08:30:52;6.00;92.70
43458;DHT22;29046;54.184;18.680;2023-02-28T08:33:19;5.30;95.90
43458;DHT22;29046;54.184;18.680;2023-02-28T08:35:46;5.30;96.80
43458;DHT22;29046;54.184;18.680;2023-02-28T08:38:13;5.20;97.20
43458;DHT22;29046;54.184;18.680;2023-02-28T08:40:40;4.60;98.50
43458;DHT22;29046;54.184;18.680;2023-02-28T08:43:07;4.30;99.90
43458;DHT22;29046;54.184;18.680;2023-02-28T08:45:35;4.60;99.90
43458;DHT22;29046;54.184;18.680;2023-02-28T08:48:02;5.00;99.90
43458;DHT22;29046;54.184;18.680;2023-02-28T08:50:29;5.90;99.60
43458;DHT22;29046;54.184;18.680;2023-02-28T08:52:56;6.20;98.10
43458;DHT22;29046;54.184;18.680;2023-02-28T08:55:23;5.90;97.40
43458;DHT22;29046;54.184;18.680;2023-02-28T08:57:50;5.80;97.40
43458;DHT22;29046;54.184;18.680;2023-02-28T09:00:19;5.70;98.50
43458;DHT22;29046;54.184;18.680;2023-02-28T09:02:46;6.30;97.90
43458;DHT22;29046;54.184;18.680;2023-02-28T09:05:14;5.90;97.40
43458;DHT22;29046;54.184;18.680;2023-02-28T09:07:41;5.90;99.00
43458;DHT22;29046;54.184;18.680;2023-02-28T09:10:09;6.10;97.10
43458;DHT22;29046;54.184;18.680;2023-02-28T09:12:37;6.80;95.40
43458;DHT22;29046;54.184;18.680;2023-02-28T09:15:05;7.40;95.70
43458;DHT22;29046;54.184;18.680;2023-02-28T09:17:32;7.70;93.50
43458;DHT22;29046;54.184;18.680;2023-02-28T09:19:59;7.90;91.30
43458;DHT22;29046;54.184;18.680;2023-02-28T09:22:26;7.70;90.80
43458;DHT22;29046;54.184;18.680;2023-02-28T09:24:53;7.50;92.80
43458;DHT22;29046;54.184;18.680;2023-02-28T09:27:20;7.00;92.30
43458;DHT22;29046;54.184;18.680;2023-02-28T09:29:47;7.50;92.70
43458;DHT22;29046;54.184;18.680;2023-02-28T09:32:14;7.30;92.90
43458;DHT22;29046;54.184;18.680;2023-02-28T09:34:43;7.60;92.30
43458;DHT22;29046;54.184;18.680;2023-02-28T09:37:10;7.70;92.20
43458;DHT22;29046;54.184;18.680;2023-02-28T09:39:37;7.60;91.90
43458;DHT22;29046;54.184;18.680;2023-02-28T09:42:05;7.10;91.30
43458;DHT22;29046;54.184;18.680;2023-02-28T09:44:43;7.30;94.30
43458;DHT22;29046;54.184;18.680;2023-02-28T09:49:57;6.60;93.00
43458;DHT22;29046;54.184;18.680;2023-02-28T09:52:29;6.60;92.80
43458;DHT22;29046;54.184;18.680;2023-02-28T10:04:18;6.80;93.50
43458;DHT22;29046;54.184;18.680;2023-02-28T10:06:53;6.90;92.30
43458;DHT22;29046;54.184;18.680;2023-02-28T10:09:32;6.70;91.50
43458;DHT22;29046;54.184;18.680;2023-02-28T10:12:10;7.00;91.60
43458;DHT22;29046;54.184;18.680;2023-02-28T10:14:40;6.80;91.50
43458;DHT22;29046;54.184;18.680;2023-02-28T10:17:19;6.80;90.90
43458;DHT22;29046;54.184;18.680;2023-02-28T10:20:05;7.40;91.60
43458;DHT22;29046;54.184;18.680;2023-02-28T10:22:57;7.80;86.90
43458;DHT22;29046;54.184;18.680;2023-02-28T10:25:29;8.30;82.70
43458;DHT22;29046;54.184;18.680;2023-02-28T10:28:04;8.90;87.10
43458;DHT22;29046;54.184;18.680;2023-02-28T10:30:32;9.60;79.70
43458;DHT22;29046;54.184;18.680;2023-02-28T10:32:59;10.20;76.10
43458;DHT22;29046;54.184;18.680;2023-02-28T10:35:27;10.40;70.30
43458;DHT22;29046;54.184;18.680;2023-02-28T10:37:57;9.70;68.60
43458;DHT22;29046;54.184;18.680;2023-02-28T10:43:03;8.60;74.80
43458;DHT22;29046;54.184;18.680;2023-02-28T10:45:34;9.10;77.90
43458;DHT22;29046;54.184;18.680;2023-02-28T10:50:46;8.20;75.10
43458;DHT22;29046;54.184;18.680;2023-02-28T10:56:03;7.60;75.80
43458;DHT22;29046;54.184;18.680;2023-02-28T11:04:35;7.80;77.20
43458;DHT22;29046;54.184;18.680;2023-02-28T11:09:45;8.30;73.20
43458;DHT22;29046;54.184;18.680;2023-02-28T11:12:30;8.30;76.50
43458;DHT22;29046;54.184;18.680;2023-02-28T11:15:06;8.50;72.30
43458;DHT22;29046;54.184;18.680;2023-02-28T11:17:33;8.20;73.20
43458;DHT22;29046;54.184;18.680;2023-02-28T11:20:05;8.40;74.80
43458;DHT22;29046;54.184;18.680;2023-02-28T11:22:38;8.40;72.20
43458;DHT22;29046;54.184;18.680;2023-02-28T11:25:25;8.40;71.70
43458;DHT22;29046;54.184;18.680;2023-02-28T11:28:02;8.50;74.30
43458;DHT22;29046;54.184;18.680;2023-02-28T11:30:41;9.20;71.80
43458;DHT22;29046;54.184;18.680;2023-02-28T11:33:31;9.40;76.40
43458;DHT22;29046;54.184;18.680;2023-02-28T11:36:03;9.90;74.80
43458;DHT22;29046;54.184;18.680;2023-02-28T11:38:34;10.60;72.20
43458;DHT22;29046;54.184;18.680;2023-02-28T11:44:21;10.70;68.10
43458;DHT22;29046;54.184;18.680;2023-02-28T11:46:56;10.80;69.20
43458;DHT22;29046;54.184;18.680;2023-02-28T11:57:56;10.90;71.80
43458;DHT22;29046;54.184;18.680;2023-02-28T12:05:52;11.30;66.20
43458;DHT22;29046;54.184;18.680;2023-02-28T12:08:49;11.30;65.20
43458;DHT22;29046;54.184;18.680;2023-02-28T12:28:13;11.30;63.70
43458;DHT22;29046;54.184;18.680;2023-02-28T12:30:56;11.30;66.40
43458;DHT22;29046;54.184;18.680;2023-02-28T12:33:28;11.50;60.80
43458;DHT22;29046;54.184;18.680;2023-02-28T12:36:05;11.90;61.00
43458;DHT22;29046;54.184;18.680;2023-02-28T12:38:38;12.00;62.50
43458;DHT22;29046;54.184;18.680;2023-02-28T12:44:02;12.10;63.20
43458;DHT22;29046;54.184;18.680;2023-02-28T12:46:37;12.10;59.50
43458;DHT22;29046;54.184;18.680;2023-02-28T12:52:13;12.60;57.90
43458;DHT22;29046;54.184;18.680;2023-02-28T12:57:52;12.90;61.60
43458;DHT22;29046;54.184;18.680;2023-02-28T13:00:32;13.10;59.10
43458;DHT22;29046;54.184;18.680;2023-02-28T13:03:22;13.40;58.40
43458;DHT22;29046;54.184;18.680;2023-02-28T13:08:59;14.00;53.30
43458;DHT22;29046;54.184;18.680;2023-02-28T13:14:04;13.90;54.10
43458;DHT22;29046;54.184;18.680;2023-02-28T13:16:53;14.00;50.00
43458;DHT22;29046;54.184;18.680;2023-02-28T13:19:22;13.70;47.80
43458;DHT22;29046;54.184;18.680;2023-02-28T13:21:51;12.60;49.50
43458;DHT22;29046;54.184;18.680;2023-02-28T13:25:12;11.50;51.40
43458;DHT22;29046;54.184;18.680;2023-02-28T13:27:39;10.60;54.50
43458;DHT22;29046;54.184;18.680;2023-02-28T13:36:08;9.50;54.20
43458;DHT22;29046;54.184;18.680;2023-02-28T13:38:43;9.30;54.20
43458;DHT22;29046;54.184;18.680;2023-02-28T13:46:31;9.20;57.80
43458;DHT22;29046;54.184;18.680;2023-02-28T13:51:52;10.30;54.50
43458;DHT22;29046;54.184;18.680;2023-02-28T13:57:17;10.60;53.10
43458;DHT22;29046;54.184;18.680;2023-02-28T14:00:21;10.50;53.80
43458;DHT22;29046;54.184;18.680;2023-02-28T14:05:44;10.00;55.20
43458;DHT22;29046;54.184;18.680;2023-02-28T14:08:16;10.00;55.60
43458;DHT22;29046;54.184;18.680;2023-02-28T14:10:50;10.50;54.80
43458;DHT22;29046;54.184;18.680;2023-02-28T14:13:42;10.80;54.30
43458;DHT22;29046;54.184;18.680;2023-02-28T14:16:21;10.40;55.50
43458;DHT22;29046;54.184;18.680;2023-02-28T14:21:27;9.80;55.80
43458;DHT22;29046;54.184;18.680;2023-02-28T14:29:26;8.80;61.10
43458;DHT22;29046;54.184;18.680;2023-02-28T14:32:11;8.90;61.20
43458;DHT22;29046;54.184;18.680;2023-02-28T14:34:51;9.00;60.90
43458;DHT22;29046;54.184;18.680;2023-02-28T14:37:29;8.70;61.80
43458;DHT22;29046;54.184;18.680;2023-02-28T14:39:59;8.30;63.50
43458;DHT22;29046;54.184;18.680;2023-02-28T14:42:29;8.80;63.40
43458;DHT22;29046;54.184;18.680;2023-02-28T14:44:57;9.20;62.10
43458;DHT22;29046;54.184;18.680;2023-02-28T14:47:32;9.00;62.50
43458;DHT22;29046;54.184;18.680;2023-02-28T14:50:02;8.70;63.00
43458;DHT22;29046;54.184;18.680;2023-02-28T14:52:31;8.60;63.40
43458;DHT22;29046;54.184;18.680;2023-02-28T14:55:14;8.40;63.10
43458;DHT22;29046;54.184;18.680;2023-02-28T14:57:53;8.00;64.70
43458;DHT22;29046;54.184;18.680;2023-02-28T15:00:28;8.20;65.10
43458;DHT22;29046;54.184;18.680;2023-02-28T15:02:57;8.50;63.80
43458;DHT22;29046;54.184;18.680;2023-02-28T15:05:29;8.60;63.90
43458;DHT22;29046;54.184;18.680;2023-02-28T15:08:15;8.60;63.20
43458;DHT22;29046;54.184;18.680;2023-02-28T15:10:51;8.40;64.10
43458;DHT22;29046;54.184;18.680;2023-02-28T15:13:20;8.50;63.70
43458;DHT22;29046;54.184;18.680;2023-02-28T15:15:57;8.50;64.40
43458;DHT22;29046;54.184;18.680;2023-02-28T15:21:10;8.60;63.80
43458;DHT22;29046;54.184;18.680;2023-02-28T15:23:38;8.90;63.00
43458;DHT22;29046;54.184;18.680;2023-02-28T15:26:18;9.20;62.80
43458;DHT22;29046;54.184;18.680;2023-02-28T15:28:47;9.20;62.10
43458;DHT22;29046;54.184;18.680;2023-02-28T15:31:33;8.90;63.00
43458;DHT22;29046;54.184;18.680;2023-02-28T15:34:26;8.60;63.90
43458;DHT22;29046;54.184;18.680;2023-02-28T15:37:28;8.40;65.20
43458;DHT22;29046;54.184;18.680;2023-02-28T15:40:12;8.60;65.00
43458;DHT22;29046;54.184;18.680;2023-02-28T15:42:40;8.80;64.50
43458;DHT22;29046;54.184;18.680;2023-02-28T15:48:02;9.10;64.40
43458;DHT22;29046;54.184;18.680;2023-02-28T15:50:40;9.30;62.70
43458;DHT22;29046;54.184;18.680;2023-02-28T15:53:14;9.20;62.40
43458;DHT22;29046;54.184;18.680;2023-02-28T15:55:42;8.90;62.70
43458;DHT22;29046;54.184;18.680;2023-02-28T15:58:12;8.50;64.20
43458;DHT22;29046;54.184;18.680;2023-02-28T16:00:43;8.10;65.10
43458;DHT22;29046;54.184;18.680;2023-02-28T16:03:26;7.60;66.00
43458;DHT22;29046;54.184;18.680;2023-02-28T16:08:59;6.70;69.20
43458;DHT22;29046;54.184;18.680;2023-02-28T16:11:26;6.40;70.80
43458;DHT22;29046;54.184;18.680;2023-02-28T16:13:55;6.10;72.20
43458;DHT22;29046;54.184;18.680;2023-02-28T16:16:24;5.70;73.50
43458;DHT22;29046;54.184;18.680;2023-02-28T16:18:53;5.40;76.10
43458;DHT22;29046;54.184;18.680;2023-02-28T16:21:20;5.20;78.90
43458;DHT22;29046;54.184;18.680;2023-02-28T16:23:47;5.10;80.90
43458;DHT22;29046;54.184;18.680;2023-02-28T16:26:21;5.00;81.10
43458;DHT22;29046;54.184;18.680;2023-02-28T16:28:49;4.80;83.50
43458;DHT22;29046;54.184;18.680;2023-02-28T16:31:17;4.60;85.50
43458;DHT22;29046;54.184;18.680;2023-02-28T16:33:46;4.40;88.30
43458;DHT22;29046;54.184;18.680;2023-02-28T16:36:23;4.50;89.20
43458;DHT22;29046;54.184;18.680;2023-02-28T16:38:54;4.60;88.70
43458;DHT22;29046;54.184;18.680;2023-02-28T16:41:25;4.60;88.10
43458;DHT22;29046;54.184;18.680;2023-02-28T16:43:55;4.40;90.30
43458;DHT22;29046;54.184;18.680;2023-02-28T16:46:33;4.30;91.60
43458;DHT22;29046;54.184;18.680;2023-02-28T16:49:01;4.10;92.60
43458;DHT22;29046;54.184;18.680;2023-02-28T16:51:28;4.00;92.40
43458;DHT22;29046;54.184;18.680;2023-02-28T16:53:57;3.90;93.10
43458;DHT22;29046;54.184;18.680;2023-02-28T16:56:25;3.50;94.90
43458;DHT22;29046;54.184;18.680;2023-02-28T16:58:57;3.30;96.40
43458;DHT22;29046;54.184;18.680;2023-02-28T17:01:24;3.40;97.00
43458;DHT22;29046;54.184;18.680;2023-02-28T17:03:53;3.30;96.60
43458;DHT22;29046;54.184;18.680;2023-02-28T17:06:23;3.30;96.80
43458;DHT22;29046;54.184;18.680;2023-02-28T17:08:51;3.10;96.90
43458;DHT22;29046;54.184;18.680;2023-02-28T17:11:19;3.00;97.80
43458;DHT22;29046;54.184;18.680;2023-02-28T17:13:47;2.90;98.60
43458;DHT22;29046;54.184;18.680;2023-02-28T17:18:50;2.60;99.90
43458;DHT22;29046;54.184;18.680;2023-02-28T17:21:18;2.40;99.90
43458;DHT22;29046;54.184;18.680;2023-02-28T17:23:45;2.20;99.90
43458;DHT22;29046;54.184;18.680;2023-02-28T17:26:17;2.20;99.90
43458;DHT22;29046;54.184;18.680;2023-02-28T17:28:52;2.20;99.90
43458;DHT22;29046;54.184;18.680;2023-02-28T17:31:20;2.10;99.90
43458;DHT22;29046;54.184;18.680;2023-02-28T17:33:47;2.00;99.90
43458;DHT22;29046;54.184;18.680;2023-02-28T17:36:16;2.00;99.90
43458;DHT22;29046;54.184;18.680;2023-02-28T17:38:45;1.80;99.90
43458;DHT22;29046;54.184;18.680;2023-02-28T17:41:12;1.70;99.90
43458;DHT22;29046;54.184;18.680;2023-02-28T17:43:40;1.70;99.90
43458;DHT22;29046;54.184;18.680;2023-02-28T17:46:16;1.70;99.90
43458;DHT22;29046;54.184;18.680;2023-02-28T17:48:49;1.60;99.90
43458;DHT22;29046;54.184;18.680;2023-02-28T17:51:18;1.60;99.90
43458;DHT22;29046;54.184;18.680;2023-02-28T17:53:45;1.60;99.90
43458;DHT22;29046;54.184;18.680;2023-02-28T17:56:15;1.60;99.90
43458;DHT22;29046;54.184;18.680;2023-02-28T17:58:43;1.60;99.90
43458;DHT22;29046;54.184;18.680;2023-02-28T18:01:10;1.60;99.90
43458;DHT22;29046;54.184;18.680;2023-02-28T18:03:39;1.40;99.90
43458;DHT22;29046;54.184;18.680;2023-02-28T18:06:08;1.40;99.90
43458;DHT22;29046;54.184;18.680;2023-02-28T18:08:37;1.40;99.90
43458;DHT22;29046;54.184;18.680;2023-02-28T18:11:04;1.40;99.90
43458;DHT22;29046;54.184;18.680;2023-02-28T18:13:31;1.50;99.90
43458;DHT22;29046;54.184;18.680;2023-02-28T18:15:59;1.40;99.90
43458;DHT22;29046;54.184;18.680;2023-02-28T18:18:26;1.20;99.90